sensor_id;sensor_type;location;lat;lon;timestamp;temperature;humidity
24452;DHT22;13350;50.984;5.822;2024-01-30T00:01:40;9.70;99.90
24452;DHT22;13350;50.984;5.822;2024-01-30T00:04:07;9.70;99.90
24452;DHT22;13350;50.984;5.822;2024-01-30T00:06:34;9.60;99.90
24452;DHT22;13350;50.984;5.822;2024-01-30T00:09:01;9.60;99.90
24452;DHT22;13350;50.984;5.822;2024-01-30T00:11:27;9.50;99.90
24452;DHT22;13350;50.984;5.822;2024-01-30T00:13:54;9.40;99.90
24452;DHT22;13350;50.984;5.822;2024-01-30T00:16:21;9.40;99.90
24452;DHT22;13350;50.984;5.822;2024-01-30T00:18:51;9.50;99.90
24452;DHT22;13350;50.984;5.822;2024-01-30T00:21:18;9.40;99.90
24452;DHT22;13350;50.984;5.822;2024-01-30T00:23:44;9.40;99.90
24452;DHT22;13350;50.984;5.822;2024-01-30T00:26:11;9.50;99.90
24452;DHT22;13350;50.984;5.822;2024-01-30T00:28:40;9.40;99.90
24452;DHT22;13350;50.984;5.822;2024-01-30T00:31:07;9.50;99.90
24452;DHT22;13350;50.984;5.822;2024-01-30T00:33:37;9.50;99.90
24452;DHT22;13350;50.984;5.822;2024-01-30T00:36:07;9.50;99.90
24452;DHT22;13350;50.984;5.822;2024-01-30T00:38:34;9.60;99.90
24452;DHT22;13350;50.984;5.822;2024-01-30T00:41:01;9.70;99.90
24452;DHT22;13350;50.984;5.822;2024-01-30T00:43:28;9.70;99.90
24452;DHT22;13350;50.984;5.822;2024-01-30T00:45:56;9.60;99.90
24452;DHT22;13350;50.984;5.822;2024-01-30T00:48:23;9.60;99.90
24452;DHT22;13350;50.984;5.822;2024-01-30T00:50:50;9.60;99.90
24452;DHT22;13350;50.984;5.822;2024-01-30T00:53:18;9.70;99.90
24452;DHT22;13350;50.984;5.822;2024-01-30T00:55:45;9.60;99.90
24452;DHT22;13350;50.984;5.822;2024-01-30T00:58:12;9.70;99.90
24452;DHT22;13350;50.984;5.822;2024-01-30T01:00:39;9.80;99.90
24452;DHT22;13350;50.984;5.822;2024-01-30T01:03:06;9.90;99.90
24452;DHT22;13350;50.984;5.822;2024-01-30T01:05:34;9.90;99.90
24452;DHT22;13350;50.984;5.822;2024-01-30T01:08:01;9.90;99.90
24452;DHT22;13350;50.984;5.822;2024-01-30T01:10:29;9.90;99.90
24452;DHT22;13350;50.984;5.822;2024-01-30T01:12:56;9.80;99.90
24452;DHT22;13350;50.984;5.822;2024-01-30T01:15:23;9.80;99.90
24452;DHT22;13350;50.984;5.822;2024-01-30T01:17:50;9.70;99.90
24452;DHT22;13350;50.984;5.822;2024-01-30T01:20:17;9.80;99.90
24452;DHT22;13350;50.984;5.822;2024-01-30T01:22:43;9.90;99.90
24452;DHT22;13350;50.984;5.822;2024-01-30T01:25:10;10.00;99.90
24452;DHT22;13350;50.984;5.822;2024-01-30T01:27:38;10.00;99.90
24452;DHT22;13350;50.984;5.822;2024-01-30T01:30:07;10.00;99.90
24452;DHT22;13350;50.984;5.822;2024-01-30T01:32:35;10.10;99.90
24452;DHT22;13350;50.984;5.822;2024-01-30T01:35:02;10.00;99.90
24452;DHT22;13350;50.984;5.822;2024-01-30T01:37:30;10.00;99.90
24452;DHT22;13350;50.984;5.822;2024-01-30T01:39:57;10.10;99.90
24452;DHT22;13350;50.984;5.822;2024-01-30T01:42:24;10.10;99.90
24452;DHT22;13350;50.984;5.822;2024-01-30T01:44:52;10.10;99.90
24452;DHT22;13350;50.984;5.822;2024-01-30T01:47:19;10.10;99.90
24452;DHT22;13350;50.984;5.822;2024-01-30T01:49:46;10.00;99.90
24452;DHT22;13350;50.984;5.822;2024-01-30T01:52:13;10.00;99.90
24452;DHT22;13350;50.984;5.822;2024-01-30T01:54:40;9.90;99.90
24452;DHT22;13350;50.984;5.822;2024-01-30T01:57:07;10.00;99.90
24452;DHT22;13350;50.984;5.822;2024-01-30T01:59:34;9.90;99.90
24452;DHT22;13350;50.984;5.822;2024-01-30T02:02:03;9.90;99.90
24452;DHT22;13350;50.984;5.822;2024-01-30T02:04:30;9.90;99.90
24452;DHT22;13350;50.984;5.822;2024-01-30T02:06:57;9.80;99.90
24452;DHT22;13350;50.984;5.822;2024-01-30T02:09:23;9.90;99.90
24452;DHT22;13350;50.984;5.822;2024-01-30T02:11:50;9.90;99.90
24452;DHT22;13350;50.984;5.822;2024-01-30T02:14:17;10.00;99.90
24452;DHT22;13350;50.984;5.822;2024-01-30T02:16:44;10.10;99.90
24452;DHT22;13350;50.984;5.822;2024-01-30T02:19:12;10.10;99.90
24452;DHT22;13350;50.984;5.822;2024-01-30T02:21:41;10.20;99.90
24452;DHT22;13350;50.984;5.822;2024-01-30T02:24:08;10.20;99.90
24452;DHT22;13350;50.984;5.822;2024-01-30T02:26:34;10.40;99.90
24452;DHT22;13350;50.984;5.822;2024-01-30T02:29:01;10.40;99.90
24452;DHT22;13350;50.984;5.822;2024-01-30T02:31:28;10.50;99.90
24452;DHT22;13350;50.984;5.822;2024-01-30T02:33:55;10.60;99.90
24452;DHT22;13350;50.984;5.822;2024-01-30T02:36:22;10.50;99.90
24452;DHT22;13350;50.984;5.822;2024-01-30T02:38:50;10.50;99.90
24452;DHT22;13350;50.984;5.822;2024-01-30T02:41:17;10.50;99.90
24452;DHT22;13350;50.984;5.822;2024-01-30T02:43:43;10.50;99.90
24452;DHT22;13350;50.984;5.822;2024-01-30T02:46:10;10.60;99.90
24452;DHT22;13350;50.984;5.822;2024-01-30T02:48:37;10.50;99.90
24452;DHT22;13350;50.984;5.822;2024-01-30T02:51:04;10.50;99.90
24452;DHT22;13350;50.984;5.822;2024-01-30T02:53:31;10.60;99.90
24452;DHT22;13350;50.984;5.822;2024-01-30T02:55:59;10.50;99.90
24452;DHT22;13350;50.984;5.822;2024-01-30T02:58:26;10.40;99.90
24452;DHT22;13350;50.984;5.822;2024-01-30T03:00:53;10.50;99.90
24452;DHT22;13350;50.984;5.822;2024-01-30T03:03:19;10.40;99.90
24452;DHT22;13350;50.984;5.822;2024-01-30T03:05:45;10.50;99.90
24452;DHT22;13350;50.984;5.822;2024-01-30T03:08:12;10.60;99.90
24452;DHT22;13350;50.984;5.822;2024-01-30T03:10:39;10.70;99.90
24452;DHT22;13350;50.984;5.822;2024-01-30T03:13:07;10.70;99.90
24452;DHT22;13350;50.984;5.822;2024-01-30T03:15:34;10.80;99.90
24452;DHT22;13350;50.984;5.822;2024-01-30T03:18:01;10.80;99.90
24452;DHT22;13350;50.984;5.822;2024-01-30T03:20:29;10.70;99.90
24452;DHT22;13350;50.984;5.822;2024-01-30T03:22:57;10.70;99.90
24452;DHT22;13350;50.984;5.822;2024-01-30T03:25:23;10.80;99.90
24452;DHT22;13350;50.984;5.822;2024-01-30T03:27:51;10.90;99.90
24452;DHT22;13350;50.984;5.822;2024-01-30T03:30:19;11.00;99.90
24452;DHT22;13350;50.984;5.822;2024-01-30T03:32:46;11.10;99.90
24452;DHT22;13350;50.984;5.822;2024-01-30T03:35:12;11.10;99.90
24452;DHT22;13350;50.984;5.822;2024-01-30T03:37:39;11.10;99.90
24452;DHT22;13350;50.984;5.822;2024-01-30T03:40:06;11.10;99.90
24452;DHT22;13350;50.984;5.822;2024-01-30T03:42:33;11.30;99.90
24452;DHT22;13350;50.984;5.822;2024-01-30T03:45:01;11.30;99.90
24452;DHT22;13350;50.984;5.822;2024-01-30T03:47:29;11.10;99.90
24452;DHT22;13350;50.984;5.822;2024-01-30T03:49:56;11.10;99.90
24452;DHT22;13350;50.984;5.822;2024-01-30T03:52:23;11.10;99.90
24452;DHT22;13350;50.984;5.822;2024-01-30T03:54:50;11.20;99.90
24452;DHT22;13350;50.984;5.822;2024-01-30T03:57:17;11.20;99.90
24452;DHT22;13350;50.984;5.822;2024-01-30T03:59:44;11.30;99.90
24452;DHT22;13350;50.984;5.822;2024-01-30T04:02:10;11.30;99.90
24452;DHT22;13350;50.984;5.822;2024-01-30T04:04:39;11.30;99.90
24452;DHT22;13350;50.984;5.822;2024-01-30T04:07:06;11.40;99.90
24452;DHT22;13350;50.984;5.822;2024-01-30T04:09:32;11.40;99.90
24452;DHT22;13350;50.984;5.822;2024-01-30T04:12:00;11.30;99.90
24452;DHT22;13350;50.984;5.822;2024-01-30T04:14:28;11.20;99.90
24452;DHT22;13350;50.984;5.822;2024-01-30T04:16:55;11.20;99.90
24452;DHT22;13350;50.984;5.822;2024-01-30T04:19:22;11.20;99.90
24452;DHT22;13350;50.984;5.822;2024-01-30T04:21:50;11.20;99.90
24452;DHT22;13350;50.984;5.822;2024-01-30T04:24:17;11.00;99.90
24452;DHT22;13350;50.984;5.822;2024-01-30T04:26:44;11.10;99.90
24452;DHT22;13350;50.984;5.822;2024-01-30T04:29:11;11.10;99.90
24452;DHT22;13350;50.984;5.822;2024-01-30T04:31:38;11.10;99.90
24452;DHT22;13350;50.984;5.822;2024-01-30T04:34:04;11.10;99.90
24452;DHT22;13350;50.984;5.822;2024-01-30T04:36:31;11.00;99.90
24452;DHT22;13350;50.984;5.822;2024-01-30T04:39:00;11.00;99.90
24452;DHT22;13350;50.984;5.822;2024-01-30T04:41:27;11.00;99.90
24452;DHT22;13350;50.984;5.822;2024-01-30T04:43:56;11.10;99.90
24452;DHT22;13350;50.984;5.822;2024-01-30T04:46:23;11.20;99.90
24452;DHT22;13350;50.984;5.822;2024-01-30T04:48:50;11.30;99.90
24452;DHT22;13350;50.984;5.822;2024-01-30T04:51:17;11.30;99.90
24452;DHT22;13350;50.984;5.822;2024-01-30T04:53:44;11.30;99.90
24452;DHT22;13350;50.984;5.822;2024-01-30T04:56:12;11.30;99.90
24452;DHT22;13350;50.984;5.822;2024-01-30T04:58:39;11.40;99.90
24452;DHT22;13350;50.984;5.822;2024-01-30T05:01:06;11.50;99.90
24452;DHT22;13350;50.984;5.822;2024-01-30T05:03:33;11.60;99.90
24452;DHT22;13350;50.984;5.822;2024-01-30T05:06:00;11.60;99.90
24452;DHT22;13350;50.984;5.822;2024-01-30T05:08:28;11.60;99.90
24452;DHT22;13350;50.984;5.822;2024-01-30T05:10:55;11.40;99.90
24452;DHT22;13350;50.984;5.822;2024-01-30T05:13:23;11.40;99.90
24452;DHT22;13350;50.984;5.822;2024-01-30T05:15:50;11.50;99.90
24452;DHT22;13350;50.984;5.822;2024-01-30T05:18:17;11.40;99.90
24452;DHT22;13350;50.984;5.822;2024-01-30T05:20:44;11.50;99.90
24452;DHT22;13350;50.984;5.822;2024-01-30T05:23:11;11.40;99.90
24452;DHT22;13350;50.984;5.822;2024-01-30T05:25:38;11.50;99.90
24452;DHT22;13350;50.984;5.822;2024-01-30T05:28:05;11.40;99.90
24452;DHT22;13350;50.984;5.822;2024-01-30T05:30:33;11.40;99.90
24452;DHT22;13350;50.984;5.822;2024-01-30T05:33:00;11.40;99.90
24452;DHT22;13350;50.984;5.822;2024-01-30T05:35:27;11.30;99.90
24452;DHT22;13350;50.984;5.822;2024-01-30T05:37:54;11.40;99.90
24452;DHT22;13350;50.984;5.822;2024-01-30T05:40:21;11.30;99.90
24452;DHT22;13350;50.984;5.822;2024-01-30T05:42:48;11.30;99.90
24452;DHT22;13350;50.984;5.822;2024-01-30T05:45:15;11.20;99.90
24452;DHT22;13350;50.984;5.822;2024-01-30T05:47:43;11.40;99.90
24452;DHT22;13350;50.984;5.822;2024-01-30T05:50:10;11.30;99.90
24452;DHT22;13350;50.984;5.822;2024-01-30T05:52:37;11.30;99.90
24452;DHT22;13350;50.984;5.822;2024-01-30T05:55:04;11.40;99.90
24452;DHT22;13350;50.984;5.822;2024-01-30T05:57:31;11.30;99.90
24452;DHT22;13350;50.984;5.822;2024-01-30T05:59:58;11.20;99.90
24452;DHT22;13350;50.984;5.822;2024-01-30T06:02:25;11.10;99.90
24452;DHT22;13350;50.984;5.822;2024-01-30T06:04:53;11.10;99.90
24452;DHT22;13350;50.984;5.822;2024-01-30T06:07:20;11.10;99.90
24452;DHT22;13350;50.984;5.822;2024-01-30T06:09:47;11.20;99.90
24452;DHT22;13350;50.984;5.822;2024-01-30T06:12:14;11.20;99.90
24452;DHT22;13350;50.984;5.822;2024-01-30T06:14:41;11.20;99.90
24452;DHT22;13350;50.984;5.822;2024-01-30T06:17:08;11.30;99.90
24452;DHT22;13350;50.984;5.822;2024-01-30T06:19:35;11.30;99.90
24452;DHT22;13350;50.984;5.822;2024-01-30T06:22:07;11.20;99.90
24452;DHT22;13350;50.984;5.822;2024-01-30T06:24:34;11.20;99.90
24452;DHT22;13350;50.984;5.822;2024-01-30T06:27:01;11.20;99.90
24452;DHT22;13350;50.984;5.822;2024-01-30T06:29:28;11.20;99.90
24452;DHT22;13350;50.984;5.822;2024-01-30T06:31:55;11.10;99.90
24452;DHT22;13350;50.984;5.822;2024-01-30T06:34:22;11.10;99.90
24452;DHT22;13350;50.984;5.822;2024-01-30T06:36:49;11.20;99.90
24452;DHT22;13350;50.984;5.822;2024-01-30T06:39:18;11.10;99.90
24452;DHT22;13350;50.984;5.822;2024-01-30T06:41:44;11.20;99.90
24452;DHT22;13350;50.984;5.822;2024-01-30T06:44:12;11.20;99.90
24452;DHT22;13350;50.984;5.822;2024-01-30T06:46:39;11.10;99.90
24452;DHT22;13350;50.984;5.822;2024-01-30T06:49:06;11.10;99.90
24452;DHT22;13350;50.984;5.822;2024-01-30T06:51:33;11.20;99.90
24452;DHT22;13350;50.984;5.822;2024-01-30T06:54:00;11.20;99.90
24452;DHT22;13350;50.984;5.822;2024-01-30T06:56:28;11.30;99.90
24452;DHT22;13350;50.984;5.822;2024-01-30T06:58:55;11.40;99.90
24452;DHT22;13350;50.984;5.822;2024-01-30T07:01:27;11.30;99.90
24452;DHT22;13350;50.984;5.822;2024-01-30T07:03:56;11.40;99.90
24452;DHT22;13350;50.984;5.822;2024-01-30T07:06:23;11.50;99.90
24452;DHT22;13350;50.984;5.822;2024-01-30T07:08:50;11.50;99.90
24452;DHT22;13350;50.984;5.822;2024-01-30T07:11:18;11.50;99.90
24452;DHT22;13350;50.984;5.822;2024-01-30T07:13:46;11.40;99.90
24452;DHT22;13350;50.984;5.822;2024-01-30T07:16:13;11.30;99.90
24452;DHT22;13350;50.984;5.822;2024-01-30T07:18:40;11.30;99.90
24452;DHT22;13350;50.984;5.822;2024-01-30T07:21:07;11.20;99.90
24452;DHT22;13350;50.984;5.822;2024-01-30T07:23:35;11.30;99.90
24452;DHT22;13350;50.984;5.822;2024-01-30T07:26:04;11.30;99.90
24452;DHT22;13350;50.984;5.822;2024-01-30T07:28:32;11.30;99.90
24452;DHT22;13350;50.984;5.822;2024-01-30T07:31:00;11.30;99.90
24452;DHT22;13350;50.984;5.822;2024-01-30T07:33:27;11.30;99.90
24452;DHT22;13350;50.984;5.822;2024-01-30T07:35:54;11.30;99.90
24452;DHT22;13350;50.984;5.822;2024-01-30T07:38:21;11.30;99.90
24452;DHT22;13350;50.984;5.822;2024-01-30T07:40:48;11.40;99.90
24452;DHT22;13350;50.984;5.822;2024-01-30T07:43:16;11.40;99.90
24452;DHT22;13350;50.984;5.822;2024-01-30T07:45:43;11.30;99.90
24452;DHT22;13350;50.984;5.822;2024-01-30T07:48:11;11.30;99.90
24452;DHT22;13350;50.984;5.822;2024-01-30T07:50:38;11.30;99.90
24452;DHT22;13350;50.984;5.822;2024-01-30T07:53:05;11.30;99.90
24452;DHT22;13350;50.984;5.822;2024-01-30T07:55:32;11.20;99.90
24452;DHT22;13350;50.984;5.822;2024-01-30T07:57:59;11.20;99.90
24452;DHT22;13350;50.984;5.822;2024-01-30T08:00:26;11.30;99.90
24452;DHT22;13350;50.984;5.822;2024-01-30T08:02:54;11.30;99.90
24452;DHT22;13350;50.984;5.822;2024-01-30T08:05:22;11.30;99.90
24452;DHT22;13350;50.984;5.822;2024-01-30T08:07:49;11.30;99.90
24452;DHT22;13350;50.984;5.822;2024-01-30T08:10:16;11.30;99.90
24452;DHT22;13350;50.984;5.822;2024-01-30T08:12:44;11.30;99.90
24452;DHT22;13350;50.984;5.822;2024-01-30T08:15:11;11.30;99.90
24452;DHT22;13350;50.984;5.822;2024-01-30T08:17:38;11.30;99.90
24452;DHT22;13350;50.984;5.822;2024-01-30T08:20:06;11.30;99.90
24452;DHT22;13350;50.984;5.822;2024-01-30T08:22:35;11.20;99.90
24452;DHT22;13350;50.984;5.822;2024-01-30T08:25:02;11.20;99.90
24452;DHT22;13350;50.984;5.822;2024-01-30T08:27:29;11.20;99.90
24452;DHT22;13350;50.984;5.822;2024-01-30T08:29:56;11.20;99.90
24452;DHT22;13350;50.984;5.822;2024-01-30T08:32:23;11.10;99.90
24452;DHT22;13350;50.984;5.822;2024-01-30T08:34:50;11.10;99.90
24452;DHT22;13350;50.984;5.822;2024-01-30T08:37:17;11.20;99.90
24452;DHT22;13350;50.984;5.822;2024-01-30T08:39:46;11.20;99.90
24452;DHT22;13350;50.984;5.822;2024-01-30T08:42:13;11.30;99.90
24452;DHT22;13350;50.984;5.822;2024-01-30T08:44:40;11.40;99.90
24452;DHT22;13350;50.984;5.822;2024-01-30T08:47:07;11.50;99.90
24452;DHT22;13350;50.984;5.822;2024-01-30T08:49:34;11.60;99.90
24452;DHT22;13350;50.984;5.822;2024-01-30T08:52:01;11.70;99.90
24452;DHT22;13350;50.984;5.822;2024-01-30T08:54:28;11.70;99.90
24452;DHT22;13350;50.984;5.822;2024-01-30T08:56:57;11.80;99.90
24452;DHT22;13350;50.984;5.822;2024-01-30T08:59:23;11.80;99.90
24452;DHT22;13350;50.984;5.822;2024-01-30T09:01:50;11.80;99.90
24452;DHT22;13350;50.984;5.822;2024-01-30T09:04:20;12.00;99.90
24452;DHT22;13350;50.984;5.822;2024-01-30T09:06:47;12.10;99.90
24452;DHT22;13350;50.984;5.822;2024-01-30T09:09:14;12.00;99.90
24452;DHT22;13350;50.984;5.822;2024-01-30T09:11:41;12.00;99.90
24452;DHT22;13350;50.984;5.822;2024-01-30T09:14:10;12.00;99.90
24452;DHT22;13350;50.984;5.822;2024-01-30T09:16:37;12.00;99.90
24452;DHT22;13350;50.984;5.822;2024-01-30T09:19:04;11.90;99.90
24452;DHT22;13350;50.984;5.822;2024-01-30T09:21:31;11.90;99.90
24452;DHT22;13350;50.984;5.822;2024-01-30T09:24:01;11.80;99.90
24452;DHT22;13350;50.984;5.822;2024-01-30T09:26:28;11.90;99.90
24452;DHT22;13350;50.984;5.822;2024-01-30T09:28:55;11.90;99.90
24452;DHT22;13350;50.984;5.822;2024-01-30T09:31:23;11.90;99.90
24452;DHT22;13350;50.984;5.822;2024-01-30T09:33:50;12.10;99.90
24452;DHT22;13350;50.984;5.822;2024-01-30T09:36:19;12.10;99.90
24452;DHT22;13350;50.984;5.822;2024-01-30T09:38:46;12.20;99.90
24452;DHT22;13350;50.984;5.822;2024-01-30T09:41:13;12.20;99.90
24452;DHT22;13350;50.984;5.822;2024-01-30T09:43:41;12.10;99.90
24452;DHT22;13350;50.984;5.822;2024-01-30T09:46:10;12.10;99.90
24452;DHT22;13350;50.984;5.822;2024-01-30T09:48:40;12.20;99.90
24452;DHT22;13350;50.984;5.822;2024-01-30T09:51:07;12.20;99.90
24452;DHT22;13350;50.984;5.822;2024-01-30T09:53:35;12.10;99.90
24452;DHT22;13350;50.984;5.822;2024-01-30T09:56:02;12.10;99.90
24452;DHT22;13350;50.984;5.822;2024-01-30T09:58:29;12.10;99.90
24452;DHT22;13350;50.984;5.822;2024-01-30T10:00:56;12.20;99.90
24452;DHT22;13350;50.984;5.822;2024-01-30T10:03:23;12.20;99.90
24452;DHT22;13350;50.984;5.822;2024-01-30T10:05:52;12.20;99.90
24452;DHT22;13350;50.984;5.822;2024-01-30T10:08:19;12.30;99.90
24452;DHT22;13350;50.984;5.822;2024-01-30T10:10:46;12.40;99.90
24452;DHT22;13350;50.984;5.822;2024-01-30T10:13:13;12.40;99.90
24452;DHT22;13350;50.984;5.822;2024-01-30T10:15:40;12.50;99.90
24452;DHT22;13350;50.984;5.822;2024-01-30T10:18:08;12.50;99.90
24452;DHT22;13350;50.984;5.822;2024-01-30T10:20:35;12.40;99.90
24452;DHT22;13350;50.984;5.822;2024-01-30T10:23:04;12.50;99.90
24452;DHT22;13350;50.984;5.822;2024-01-30T10:25:31;12.50;99.90
24452;DHT22;13350;50.984;5.822;2024-01-30T10:27:58;12.60;99.90
24452;DHT22;13350;50.984;5.822;2024-01-30T10:30:27;12.60;99.90
24452;DHT22;13350;50.984;5.822;2024-01-30T10:32:54;12.60;99.90
24452;DHT22;13350;50.984;5.822;2024-01-30T10:35:21;12.60;99.90
24452;DHT22;13350;50.984;5.822;2024-01-30T10:37:48;12.70;99.90
24452;DHT22;13350;50.984;5.822;2024-01-30T10:40:16;12.70;99.90
24452;DHT22;13350;50.984;5.822;2024-01-30T10:42:44;12.70;99.90
24452;DHT22;13350;50.984;5.822;2024-01-30T10:45:12;12.60;99.90
24452;DHT22;13350;50.984;5.822;2024-01-30T10:47:39;12.60;99.90
24452;DHT22;13350;50.984;5.822;2024-01-30T10:50:07;12.50;99.90
24452;DHT22;13350;50.984;5.822;2024-01-30T10:52:36;12.50;99.90
24452;DHT22;13350;50.984;5.822;2024-01-30T10:55:04;12.50;99.90
24452;DHT22;13350;50.984;5.822;2024-01-30T10:57:33;12.40;99.90
24452;DHT22;13350;50.984;5.822;2024-01-30T11:00:01;12.50;99.90
24452;DHT22;13350;50.984;5.822;2024-01-30T11:02:30;12.60;99.90
24452;DHT22;13350;50.984;5.822;2024-01-30T11:04:58;12.60;99.90
24452;DHT22;13350;50.984;5.822;2024-01-30T11:07:26;12.60;99.90
24452;DHT22;13350;50.984;5.822;2024-01-30T11:09:54;12.70;99.90
24452;DHT22;13350;50.984;5.822;2024-01-30T11:12:26;12.60;99.90
24452;DHT22;13350;50.984;5.822;2024-01-30T11:15:02;12.60;99.90
24452;DHT22;13350;50.984;5.822;2024-01-30T11:17:40;12.60;99.90
24452;DHT22;13350;50.984;5.822;2024-01-30T11:20:09;12.30;99.90
24452;DHT22;13350;50.984;5.822;2024-01-30T11:22:37;12.30;99.90
24452;DHT22;13350;50.984;5.822;2024-01-30T11:25:04;12.30;99.90
24452;DHT22;13350;50.984;5.822;2024-01-30T11:27:31;12.30;99.90
24452;DHT22;13350;50.984;5.822;2024-01-30T11:30:00;12.40;99.90
24452;DHT22;13350;50.984;5.822;2024-01-30T11:32:29;12.40;99.90
24452;DHT22;13350;50.984;5.822;2024-01-30T11:34:56;12.50;99.90
24452;DHT22;13350;50.984;5.822;2024-01-30T11:37:25;12.50;99.90
24452;DHT22;13350;50.984;5.822;2024-01-30T11:39:52;12.50;99.90
24452;DHT22;13350;50.984;5.822;2024-01-30T11:42:21;12.40;99.90
24452;DHT22;13350;50.984;5.822;2024-01-30T11:44:48;12.40;99.90
24452;DHT22;13350;50.984;5.822;2024-01-30T11:47:15;12.30;99.90
24452;DHT22;13350;50.984;5.822;2024-01-30T11:49:44;12.30;99.90
24452;DHT22;13350;50.984;5.822;2024-01-30T11:52:11;12.20;99.90
24452;DHT22;13350;50.984;5.822;2024-01-30T11:54:39;12.20;99.90
24452;DHT22;13350;50.984;5.822;2024-01-30T11:57:06;12.20;99.90
24452;DHT22;13350;50.984;5.822;2024-01-30T11:59:33;12.20;99.90
24452;DHT22;13350;50.984;5.822;2024-01-30T12:02:00;12.10;99.90
24452;DHT22;13350;50.984;5.822;2024-01-30T12:04:28;12.10;99.90
24452;DHT22;13350;50.984;5.822;2024-01-30T12:06:56;12.00;99.90
24452;DHT22;13350;50.984;5.822;2024-01-30T12:09:23;12.00;99.90
24452;DHT22;13350;50.984;5.822;2024-01-30T12:11:50;12.00;99.90
24452;DHT22;13350;50.984;5.822;2024-01-30T12:14:17;12.00;99.90
24452;DHT22;13350;50.984;5.822;2024-01-30T12:16:48;12.00;99.90
24452;DHT22;13350;50.984;5.822;2024-01-30T12:19:21;11.90;99.90
24452;DHT22;13350;50.984;5.822;2024-01-30T12:21:47;11.90;99.90
24452;DHT22;13350;50.984;5.822;2024-01-30T12:24:21;11.90;99.90
24452;DHT22;13350;50.984;5.822;2024-01-30T12:26:48;11.90;99.90
24452;DHT22;13350;50.984;5.822;2024-01-30T12:29:15;11.90;99.90
24452;DHT22;13350;50.984;5.822;2024-01-30T12:31:42;11.90;99.90
24452;DHT22;13350;50.984;5.822;2024-01-30T12:34:09;11.80;99.90
24452;DHT22;13350;50.984;5.822;2024-01-30T12:36:36;11.80;99.90
24452;DHT22;13350;50.984;5.822;2024-01-30T12:39:02;11.80;99.90
24452;DHT22;13350;50.984;5.822;2024-01-30T12:41:32;11.80;99.90
24452;DHT22;13350;50.984;5.822;2024-01-30T12:43:59;11.80;99.90
24452;DHT22;13350;50.984;5.822;2024-01-30T12:46:27;11.70;99.90
24452;DHT22;13350;50.984;5.822;2024-01-30T12:48:54;11.70;99.90
24452;DHT22;13350;50.984;5.822;2024-01-30T12:51:21;11.70;99.90
24452;DHT22;13350;50.984;5.822;2024-01-30T12:53:48;11.70;99.90
24452;DHT22;13350;50.984;5.822;2024-01-30T12:56:15;11.70;99.90
24452;DHT22;13350;50.984;5.822;2024-01-30T12:58:44;11.80;99.90
24452;DHT22;13350;50.984;5.822;2024-01-30T13:01:10;11.70;99.90
24452;DHT22;13350;50.984;5.822;2024-01-30T13:03:37;11.70;99.90
24452;DHT22;13350;50.984;5.822;2024-01-30T13:06:05;11.80;99.90
24452;DHT22;13350;50.984;5.822;2024-01-30T13:08:31;11.80;99.90
24452;DHT22;13350;50.984;5.822;2024-01-30T13:10:58;11.80;99.90
24452;DHT22;13350;50.984;5.822;2024-01-30T13:13:25;11.80;99.90
24452;DHT22;13350;50.984;5.822;2024-01-30T13:15:54;11.90;99.90
24452;DHT22;13350;50.984;5.822;2024-01-30T13:18:21;12.10;99.90
24452;DHT22;13350;50.984;5.822;2024-01-30T13:20:48;12.20;99.90
24452;DHT22;13350;50.984;5.822;2024-01-30T13:23:14;12.20;99.90
24452;DHT22;13350;50.984;5.822;2024-01-30T13:25:41;12.20;99.90
24452;DHT22;13350;50.984;5.822;2024-01-30T13:28:08;12.10;99.90
24452;DHT22;13350;50.984;5.822;2024-01-30T13:30:35;12.20;99.90
24452;DHT22;13350;50.984;5.822;2024-01-30T13:33:04;12.40;99.90
24452;DHT22;13350;50.984;5.822;2024-01-30T13:35:31;12.50;99.90
24452;DHT22;13350;50.984;5.822;2024-01-30T13:37:58;12.50;99.90
24452;DHT22;13350;50.984;5.822;2024-01-30T13:40:25;12.50;99.90
24452;DHT22;13350;50.984;5.822;2024-01-30T13:42:52;12.30;99.90
24452;DHT22;13350;50.984;5.822;2024-01-30T13:45:19;12.30;99.90
24452;DHT22;13350;50.984;5.822;2024-01-30T13:47:46;12.10;99.90
24452;DHT22;13350;50.984;5.822;2024-01-30T13:50:14;12.00;99.90
24452;DHT22;13350;50.984;5.822;2024-01-30T13:52:42;11.80;99.90
24452;DHT22;13350;50.984;5.822;2024-01-30T13:55:09;11.70;99.90
24452;DHT22;13350;50.984;5.822;2024-01-30T13:57:36;11.60;99.90
24452;DHT22;13350;50.984;5.822;2024-01-30T14:00:04;11.60;99.90
24452;DHT22;13350;50.984;5.822;2024-01-30T14:02:32;11.50;99.90
24452;DHT22;13350;50.984;5.822;2024-01-30T14:04:59;11.50;99.90
24452;DHT22;13350;50.984;5.822;2024-01-30T14:07:27;11.50;99.90
24452;DHT22;13350;50.984;5.822;2024-01-30T14:09:54;11.50;99.90
24452;DHT22;13350;50.984;5.822;2024-01-30T14:12:21;11.50;99.90
24452;DHT22;13350;50.984;5.822;2024-01-30T14:14:48;11.50;99.90
24452;DHT22;13350;50.984;5.822;2024-01-30T14:17:15;11.50;99.90
24452;DHT22;13350;50.984;5.822;2024-01-30T14:19:42;11.40;99.90
24452;DHT22;13350;50.984;5.822;2024-01-30T14:22:09;11.40;99.90
24452;DHT22;13350;50.984;5.822;2024-01-30T14:24:37;11.30;99.90
24452;DHT22;13350;50.984;5.822;2024-01-30T14:27:04;11.30;99.90
24452;DHT22;13350;50.984;5.822;2024-01-30T14:29:33;11.30;99.90
24452;DHT22;13350;50.984;5.822;2024-01-30T14:32:00;11.30;99.90
24452;DHT22;13350;50.984;5.822;2024-01-30T14:34:26;11.30;99.90
24452;DHT22;13350;50.984;5.822;2024-01-30T14:36:53;11.10;99.90
24452;DHT22;13350;50.984;5.822;2024-01-30T14:39:20;11.20;99.90
24452;DHT22;13350;50.984;5.822;2024-01-30T14:41:48;11.30;99.90
24452;DHT22;13350;50.984;5.822;2024-01-30T14:44:15;11.30;99.90
24452;DHT22;13350;50.984;5.822;2024-01-30T14:46:42;11.20;99.90
24452;DHT22;13350;50.984;5.822;2024-01-30T14:49:09;11.30;99.90
24452;DHT22;13350;50.984;5.822;2024-01-30T14:51:36;11.30;99.90
24452;DHT22;13350;50.984;5.822;2024-01-30T14:54:03;11.30;99.90
24452;DHT22;13350;50.984;5.822;2024-01-30T14:56:30;11.30;99.90
24452;DHT22;13350;50.984;5.822;2024-01-30T14:58:59;11.30;99.90
24452;DHT22;13350;50.984;5.822;2024-01-30T15:01:26;11.20;99.90
24452;DHT22;13350;50.984;5.822;2024-01-30T15:03:53;11.40;99.90
24452;DHT22;13350;50.984;5.822;2024-01-30T15:06:20;11.80;99.90
24452;DHT22;13350;50.984;5.822;2024-01-30T15:08:49;12.10;99.90
24452;DHT22;13350;50.984;5.822;2024-01-30T15:11:16;11.90;99.90
24452;DHT22;13350;50.984;5.822;2024-01-30T15:13:43;11.60;99.90
24452;DHT22;13350;50.984;5.822;2024-01-30T15:16:11;12.00;99.90
24452;DHT22;13350;50.984;5.822;2024-01-30T15:18:38;12.10;99.90
24452;DHT22;13350;50.984;5.822;2024-01-30T15:21:05;12.30;99.90
24452;DHT22;13350;50.984;5.822;2024-01-30T15:23:32;12.30;99.90
24452;DHT22;13350;50.984;5.822;2024-01-30T15:25:59;12.30;99.90
24452;DHT22;13350;50.984;5.822;2024-01-30T15:28:33;11.90;99.90
24452;DHT22;13350;50.984;5.822;2024-01-30T15:31:01;11.60;99.90
24452;DHT22;13350;50.984;5.822;2024-01-30T15:33:29;11.40;99.90